Página principal
METAR-TAF:

METAR-TAF

Aeroportos :

Amã, Jordânia

latitude: 31-59N, longitude: 035-59E, altura: 767 m

Observação actual do tempo

O boletim foi feito há 1 hora e 35 minutos, às 22:00 UTC
Vento 6 kt de su-sudoeste
Temperatura 20°C
Humidade 32%
Pressão 1017 hPa
Visibilidade: 4000 m
bruma

METAR: OJAM 192200Z 21006KT 4000 HZ NSC 20/03 Q1017 NOSIG

Hora: 02:35 (23:35 UTC)

Previsão

O boletim foi feito há 6 horas e 45 minutos, às 16:50 UTC
Previsão válida de 19 às 18 UTC a 20 às 24 UTC
Vento 4 kt de oes-noroeste
Visibilidade: 5000 m
bruma
Temporariamente
de 19 às 02 UTC a 19 às 07 UTC
Visibilidade: 3000 m
fumo

TAF: OJAM 191650Z 1918/2024 30004KT 5000 HZ NSC TEMPO 1902/1907 3000 FU

Observações e previsões do tempo de mais de 4000 aeroportos (mensagens METAR e TAF).

As estações disponíveis são os pontos amarelos e vermelhos sobre o mapa.

Mova o rato sobre o mapa para ver o nome da estação.

Depois clique no ponto para visualizar as observações e previsões meteorológicas.

Para alterar o mapa : clique nos botões verdes com uma cruz preta para aumentar o zoom; no botão verde com uma pitada de zoom; ou nas setas verdes para mapas adjacentes.


METAR-TAF: